Time;durP1;ratioP1;P1;durP2;ratioP2;P2;SDS_P1;SDS_P2;PMS_P1;PMS_P2;Temp;Humidity;BMP_temperature;BMP_pressure;BME280_temperature;BME280_humidity;BME280_pressure;Samples;Min_cycle;Max_cycle;Signal;HPM_P1;HPM_P2
2021/01/23 00:02:04;;;;;;;13.18;6.15;;;3.90;99.90;;;;;;4864868;29;20038;-84
2021/01/23 00:04:31;;;;;;;22.35;8.00;;;3.90;99.90;;;;;;4865846;29;20029;-86
2021/01/23 00:06:56;;;;;;;13.40;6.30;;;3.90;99.90;;;;;;4865008;29;20029;-84
2021/01/23 00:09:22;;;;;;;10.23;6.15;;;3.90;99.90;;;;;;4848191;29;20037;-82
2021/01/23 00:11:48;;;;;;;14.02;6.13;;;3.90;99.90;;;;;;4864643;29;20030;-85
2021/01/23 00:14:14;;;;;;;16.13;6.93;;;3.90;99.90;;;;;;4868243;29;20133;-84
2021/01/23 00:16:39;;;;;;;16.40;6.95;;;3.90;99.90;;;;;;4865092;29;20491;-85
2021/01/23 00:19:05;;;;;;;17.00;6.68;;;3.90;99.90;;;;;;4865240;29;20399;-85
2021/01/23 00:21:31;;;;;;;11.93;6.85;;;3.90;99.90;;;;;;4865869;29;20033;-85
2021/01/23 00:23:56;;;;;;;21.02;5.97;;;4.00;99.90;;;;;;4864966;29;20233;-85
2021/01/23 00:26:23;;;;;;;14.70;6.15;;;4.00;99.90;;;;;;4865670;29;20111;-85
2021/01/23 00:28:49;;;;;;;24.63;7.07;;;4.00;99.90;;;;;;4864719;29;20025;-85
2021/01/23 00:31:14;;;;;;;13.88;7.40;;;3.90;99.90;;;;;;4865095;29;20482;-84
2021/01/23 00:33:40;;;;;;;15.15;5.38;;;3.90;99.90;;;;;;4866422;29;20057;-85
2021/01/23 00:36:06;;;;;;;12.90;6.15;;;4.00;99.90;;;;;;4871833;29;20403;-84
2021/01/23 00:38:32;;;;;;;19.70;6.80;;;4.00;99.90;;;;;;4866993;29;20022;-85
2021/01/23 00:40:58;;;;;;;18.88;6.30;;;4.00;99.90;;;;;;4870273;29;20562;-85
2021/01/23 00:43:24;;;;;;;11.45;6.90;;;4.00;99.90;;;;;;4871444;29;20057;-85
2021/01/23 00:45:50;;;;;;;18.98;5.85;;;3.90;99.90;;;;;;4872392;29;20033;-84
2021/01/23 00:48:15;;;;;;;10.65;5.53;;;3.80;99.90;;;;;;4878866;29;20038;-83
2021/01/23 00:50:41;;;;;;;14.48;5.65;;;3.80;99.90;;;;;;4877987;29;20045;-85
2021/01/23 00:53:07;;;;;;;13.95;6.10;;;3.80;99.90;;;;;;4878769;29;20112;-85
2021/01/23 00:55:32;;;;;;;18.77;5.05;;;3.90;99.90;;;;;;4878920;29;20022;-85
2021/01/23 00:57:58;;;;;;;15.80;6.38;;;3.80;99.90;;;;;;4879106;29;20030;-85
2021/01/23 01:00:24;;;;;;;14.60;5.75;;;3.80;99.90;;;;;;4860733;29;20041;-85
2021/01/23 01:02:50;;;;;;;9.25;4.85;;;3.80;99.90;;;;;;4876071;29;20033;-85
2021/01/23 01:05:16;;;;;;;11.65;5.80;;;3.70;99.90;;;;;;4877874;29;20037;-85
2021/01/23 01:07:42;;;;;;;10.18;5.75;;;3.70;99.90;;;;;;4860459;29;20049;-84
2021/01/23 01:10:09;;;;;;;13.40;5.70;;;3.80;99.90;;;;;;4877475;29;20064;-85
2021/01/23 01:12:34;;;;;;;13.18;5.47;;;3.80;99.90;;;;;;4876936;29;20375;-84
2021/01/23 01:15:00;;;;;;;12.80;5.90;;;3.80;99.90;;;;;;4876048;29;20037;-85
2021/01/23 01:17:26;;;;;;;14.50;5.45;;;3.80;99.90;;;;;;4875338;29;20552;-85
2021/01/23 01:19:51;;;;;;;19.60;5.47;;;3.80;99.90;;;;;;4876691;29;20031;-85
2021/01/23 01:22:17;;;;;;;11.45;6.80;;;3.70;99.90;;;;;;4876796;29;20064;-85
2021/01/23 01:24:43;;;;;;;15.93;5.20;;;3.70;99.90;;;;;;4874145;29;20467;-84
2021/01/23 01:27:08;;;;;;;12.60;6.00;;;3.70;99.90;;;;;;4874463;29;20033;-84
2021/01/23 01:29:34;;;;;;;11.27;5.35;;;3.60;99.90;;;;;;4872540;29;20136;-85
2021/01/23 01:32:00;;;;;;;11.80;5.65;;;3.70;99.90;;;;;;4871020;29;20034;-84
2021/01/23 01:34:25;;;;;;;23.55;5.55;;;3.70;99.90;;;;;;4869054;29;20037;-84
2021/01/23 01:36:51;;;;;;;20.70;5.95;;;3.70;99.90;;;;;;4869824;29;20041;-85
2021/01/23 01:39:16;;;;;;;14.93;5.70;;;3.70;99.90;;;;;;4869716;29;20033;-84
2021/01/23 01:41:42;;;;;;;11.73;5.90;;;3.70;99.90;;;;;;4869816;29;20453;-84
2021/01/23 01:44:08;;;;;;;9.32;5.22;;;3.70;99.90;;;;;;4877323;29;20053;-85
2021/01/23 01:46:41;;;;;;;15.20;6.20;;;3.80;99.90;;;;;;4878812;29;20036;-84
2021/01/23 01:49:08;;;;;;;13.27;6.60;;;3.80;99.90;;;;;;4874929;29;20622;-84
2021/01/23 01:51:34;;;;;;;15.07;6.25;;;3.90;99.90;;;;;;4873081;29;20017;-84
2021/01/23 01:54:01;;;;;;;12.75;5.40;;;4.00;99.90;;;;;;4873909;29;20029;-84
2021/01/23 01:56:26;;;;;;;15.13;7.03;;;4.10;99.90;;;;;;4872623;29;20025;-84
2021/01/23 01:58:52;;;;;;;18.27;6.70;;;4.20;99.90;;;;;;4874140;29;20082;-85
2021/01/23 02:01:18;;;;;;;11.57;5.88;;;4.20;99.90;;;;;;4872463;29;20048;-84
2021/01/23 02:04:02;;;;;;;9.45;5.53;;;4.20;99.90;;;;;;4861322;29;20108;-85
2021/01/23 02:06:40;;;;;;;9.90;5.82;;;4.20;99.90;;;;;;4876666;29;20044;-84
2021/01/23 02:09:26;;;;;;;16.25;6.80;;;4.30;99.90;;;;;;4880219;29;20025;-84
2021/01/23 02:12:29;;;;;;;17.75;6.10;;;4.30;99.90;;;;;;4878866;29;20041;-84
2021/01/23 02:15:03;;;;;;;21.48;7.15;;;4.30;99.90;;;;;;4874338;29;20154;-84
2021/01/23 02:17:35;;;;;;;13.52;6.43;;;4.30;99.90;;;;;;4855826;29;20546;-84
2021/01/23 02:20:49;;;;;;;11.65;5.93;;;4.30;99.90;;;;;;4868920;29;20510;-84
2021/01/23 02:23:26;;;;;;;13.70;6.22;;;4.30;99.90;;;;;;4796284;29;20041;-84
2021/01/23 02:26:18;;;;;;;11.48;6.35;;;4.30;99.90;;;;;;4867858;29;20081;-84
2021/01/23 02:29:02;;;;;;;10.13;6.22;;;4.30;99.90;;;;;;4866284;29;20479;-84
2021/01/23 02:31:31;;;;;;;16.33;6.93;;;4.40;99.90;;;;;;4869789;29;20061;-83
2021/01/23 02:33:59;;;;;;;13.05;7.28;;;4.40;99.90;;;;;;4866396;29;20466;-83
2021/01/23 02:36:27;;;;;;;11.88;7.10;;;4.30;99.90;;;;;;4864818;29;20032;-83
2021/01/23 02:38:54;;;;;;;16.40;8.50;;;4.40;99.90;;;;;;4865900;29;20111;-83
2021/01/23 02:41:20;;;;;;;18.13;7.45;;;4.40;99.90;;;;;;4864662;29;20410;-84
2021/01/23 02:43:46;;;;;;;11.48;6.90;;;4.40;99.90;;;;;;4866123;29;20045;-83
2021/01/23 02:46:14;;;;;;;21.77;7.90;;;4.40;99.90;;;;;;4867844;29;20080;-83
2021/01/23 02:48:40;;;;;;;15.48;7.78;;;4.40;99.90;;;;;;4867896;29;20029;-83
2021/01/23 02:51:12;;;;;;;24.23;8.07;;;4.40;99.90;;;;;;4852020;29;20025;-84
2021/01/23 02:53:39;;;;;;;18.95;7.50;;;4.40;99.90;;;;;;4851723;29;20021;-83
2021/01/23 02:56:10;;;;;;;13.60;8.27;;;4.50;99.90;;;;;;4868184;29;20057;-83
2021/01/23 02:58:38;;;;;;;20.27;7.97;;;4.50;99.90;;;;;;4866736;29;20060;-83
2021/01/23 03:01:04;;;;;;;12.95;7.68;;;4.50;99.90;;;;;;4848891;29;20516;-84
2021/01/23 03:03:32;;;;;;;20.30;9.68;;;4.50;99.90;;;;;;4865830;29;20046;-85
2021/01/23 03:06:04;;;;;;;12.50;7.07;;;4.40;99.90;;;;;;4850149;29;20025;-83
2021/01/23 03:08:31;;;;;;;15.70;7.50;;;4.50;99.90;;;;;;4865450;29;20045;-83
2021/01/23 03:10:57;;;;;;;17.70;8.13;;;4.50;99.90;;;;;;4864773;29;20030;-85
2021/01/23 03:13:22;;;;;;;15.73;7.80;;;4.50;99.90;;;;;;4862556;29;20030;-85
2021/01/23 03:15:48;;;;;;;21.63;9.68;;;4.40;99.90;;;;;;4862714;29;20037;-84
2021/01/23 03:18:13;;;;;;;20.25;9.93;;;4.50;99.90;;;;;;4846729;29;20053;-83
2021/01/23 03:20:39;;;;;;;21.00;9.25;;;4.40;99.90;;;;;;4862093;29;20037;-84
2021/01/23 03:23:05;;;;;;;13.80;6.97;;;4.40;99.90;;;;;;4845465;29;20037;-84
2021/01/23 03:25:31;;;;;;;13.57;8.20;;;4.40;99.90;;;;;;4860601;29;20022;-84
2021/01/23 03:27:58;;;;;;;16.98;8.45;;;4.30;99.90;;;;;;4863972;29;20038;-84
2021/01/23 03:30:24;;;;;;;14.63;8.55;;;4.40;99.90;;;;;;4866307;29;20025;-83
2021/01/23 03:32:52;;;;;;;15.52;7.75;;;4.30;99.90;;;;;;4865952;29;20025;-83
2021/01/23 03:35:18;;;;;;;15.38;7.80;;;4.30;99.90;;;;;;4866125;29;20448;-82
2021/01/23 03:37:44;;;;;;;21.17;7.65;;;4.20;99.90;;;;;;4867412;29;20089;-83
2021/01/23 03:40:11;;;;;;;16.70;7.68;;;4.20;99.90;;;;;;4866482;29;20030;-83
2021/01/23 03:42:37;;;;;;;15.45;8.32;;;4.20;99.90;;;;;;4866117;29;20028;-83
2021/01/23 03:45:04;;;;;;;15.82;7.40;;;4.20;99.90;;;;;;4865942;29;20108;-83
2021/01/23 03:47:30;;;;;;;12.43;5.63;;;4.20;99.90;;;;;;4867773;29;20040;-83
2021/01/23 03:49:55;;;;;;;13.82;8.77;;;4.20;99.90;;;;;;4869269;29;20639;-83
2021/01/23 03:52:21;;;;;;;15.80;7.03;;;4.20;99.90;;;;;;4867547;29;20037;-83
2021/01/23 03:54:46;;;;;;;12.48;7.45;;;4.20;99.90;;;;;;4870652;29;20504;-84
2021/01/23 03:57:12;;;;;;;19.77;9.18;;;4.20;99.90;;;;;;4850661;29;20041;-84
2021/01/23 03:59:38;;;;;;;22.13;8.63;;;4.10;99.90;;;;;;4870562;29;20471;-83
2021/01/23 04:02:04;;;;;;;16.85;7.85;;;4.10;99.90;;;;;;4868141;29;20029;-83
2021/01/23 04:04:31;;;;;;;16.38;7.72;;;4.10;99.90;;;;;;4850456;29;20368;-83
2021/01/23 04:06:58;;;;;;;21.02;8.70;;;4.00;99.90;;;;;;4868936;29;20046;-83
2021/01/23 04:09:24;;;;;;;14.35;7.13;;;4.00;99.90;;;;;;4869797;29;20093;-83
2021/01/23 04:11:50;;;;;;;15.45;7.57;;;4.00;99.90;;;;;;4866345;29;20041;-81
2021/01/23 04:14:16;;;;;;;15.43;7.47;;;4.00;99.90;;;;;;4854655;29;20030;-83
2021/01/23 04:16:46;;;;;;;16.33;7.38;;;4.00;99.90;;;;;;4870546;29;20140;-82
2021/01/23 04:19:11;;;;;;;16.60;7.65;;;4.00;99.90;;;;;;4866667;29;20081;-83
2021/01/23 04:21:37;;;;;;;15.18;8.10;;;4.00;99.90;;;;;;4868510;29;20025;-82
2021/01/23 04:24:03;;;;;;;20.13;8.07;;;4.00;99.90;;;;;;4867340;29;20030;-82
2021/01/23 04:26:29;;;;;;;17.95;7.93;;;4.00;99.90;;;;;;4870613;29;20026;-82
2021/01/23 04:28:55;;;;;;;15.07;8.13;;;3.90;99.90;;;;;;4871344;29;20073;-83
2021/01/23 04:31:20;;;;;;;20.50;7.63;;;3.90;99.90;;;;;;4867801;29;20562;-83
2021/01/23 04:33:46;;;;;;;16.00;7.78;;;3.90;99.90;;;;;;4870557;29;20025;-83
2021/01/23 04:36:12;;;;;;;13.98;8.05;;;3.90;99.90;;;;;;4865982;29;20090;-83
2021/01/23 04:38:37;;;;;;;18.10;7.70;;;3.90;99.90;;;;;;4847243;29;20037;-83
2021/01/23 04:41:03;;;;;;;15.48;7.30;;;3.90;99.90;;;;;;4864989;29;20117;-84
2021/01/23 04:43:28;;;;;;;19.77;8.00;;;3.90;99.90;;;;;;4862190;29;20117;-83
2021/01/23 04:45:54;;;;;;;15.70;7.47;;;4.00;99.90;;;;;;4862964;29;20045;-84
2021/01/23 04:48:20;;;;;;;20.30;7.85;;;4.00;99.90;;;;;;4862933;29;20045;-84
2021/01/23 04:50:47;;;;;;;16.83;7.70;;;3.90;99.90;;;;;;4863033;29;20032;-85
2021/01/23 04:53:13;;;;;;;14.40;7.95;;;4.00;99.90;;;;;;4864192;29;20479;-84
2021/01/23 04:55:39;;;;;;;11.60;7.03;;;4.00;99.90;;;;;;4863094;29;20057;-84
2021/01/23 04:58:04;;;;;;;13.05;7.20;;;4.00;99.90;;;;;;4862424;29;20034;-84
2021/01/23 05:00:30;;;;;;;13.15;7.53;;;4.00;99.90;;;;;;4861694;29;20128;-84
2021/01/23 05:03:04;;;;;;;13.13;6.55;;;4.10;99.90;;;;;;4862469;29;20045;-84
2021/01/23 05:05:30;;;;;;;18.65;7.32;;;4.10;99.90;;;;;;4862774;29;20088;-84
2021/01/23 05:08:06;;;;;;;18.35;7.28;;;4.10;99.90;;;;;;4866159;29;20034;-84
2021/01/23 05:10:33;;;;;;;14.02;7.80;;;4.00;99.90;;;;;;4867176;29;20459;-84
2021/01/23 05:12:58;;;;;;;12.30;6.85;;;4.00;99.90;;;;;;4862840;29;20039;-85
2021/01/23 05:15:32;;;;;;;12.07;7.07;;;4.00;99.90;;;;;;4863438;29;20477;-83
2021/01/23 05:18:02;;;;;;;13.50;6.88;;;4.10;99.90;;;;;;4856004;29;20534;-84
2021/01/23 05:20:49;;;;;;;12.95;6.63;;;4.20;99.90;;;;;;4863379;29;20121;-85
2021/01/23 05:23:31;;;;;;;10.65;6.38;;;4.20;99.90;;;;;;4844078;29;20068;-85
2021/01/23 05:26:01;;;;;;;12.18;6.60;;;4.10;99.90;;;;;;4863299;29;20030;-85
2021/01/23 05:28:39;;;;;;;17.30;7.00;;;4.20;99.90;;;;;;4848011;29;20068;-85
2021/01/23 05:31:18;;;;;;;11.07;5.78;;;4.20;99.90;;;;;;4862458;29;20033;-85
2021/01/23 05:33:43;;;;;;;13.40;5.63;;;4.30;99.90;;;;;;4862673;29;20033;-85
2021/01/23 05:36:11;;;;;;;9.65;6.22;;;4.30;99.90;;;;;;4864055;29;20033;-85
2021/01/23 05:38:40;;;;;;;9.93;5.82;;;4.30;99.90;;;;;;4847004;29;20049;-85
2021/01/23 05:41:06;;;;;;;10.45;5.80;;;4.30;99.90;;;;;;4863663;29;20168;-84
2021/01/23 05:43:32;;;;;;;11.73;5.68;;;4.30;99.90;;;;;;4862042;29;20033;-84
2021/01/23 05:45:59;;;;;;;9.82;6.05;;;4.30;99.90;;;;;;4862780;29;20046;-85
2021/01/23 05:48:24;;;;;;;11.18;5.93;;;4.40;99.90;;;;;;4861965;29;20056;-85
2021/01/23 05:50:51;;;;;;;10.82;5.70;;;4.40;99.90;;;;;;4847041;29;20081;-85
2021/01/23 05:53:17;;;;;;;13.18;5.40;;;4.40;99.90;;;;;;4862911;29;20034;-86
2021/01/23 05:55:43;;;;;;;7.25;5.40;;;4.50;99.90;;;;;;4862630;29;20034;-85
2021/01/23 05:58:09;;;;;;;11.48;5.72;;;4.50;99.90;;;;;;4864470;29;20041;-85
2021/01/23 06:00:35;;;;;;;19.55;5.50;;;4.50;99.90;;;;;;4861433;29;20503;-85
2021/01/23 06:03:01;;;;;;;13.88;5.13;;;4.50;99.90;;;;;;4862314;29;20029;-85
2021/01/23 06:05:27;;;;;;;12.48;6.47;;;4.50;99.90;;;;;;4848257;29;20038;-85
2021/01/23 06:07:53;;;;;;;7.45;4.50;;;4.50;99.90;;;;;;4867930;29;20033;-86
2021/01/23 06:10:22;;;;;;;12.30;5.10;;;4.60;99.90;;;;;;4852468;29;20029;-86
2021/01/23 06:12:54;;;;;;;7.63;4.50;;;4.60;99.90;;;;;;4866244;29;20038;-84
2021/01/23 06:15:38;;;;;;;12.20;5.68;;;4.60;99.90;;;;;;4874372;29;20157;-83
2021/01/23 06:18:06;;;;;;;12.90;5.38;;;4.50;99.90;;;;;;4868038;29;20033;-84
2021/01/23 06:20:41;;;;;;;10.00;5.85;;;4.60;99.90;;;;;;4872126;29;20037;-83
2021/01/23 06:23:11;;;;;;;11.23;5.35;;;4.60;99.90;;;;;;4870990;29;20037;-84
2021/01/23 06:25:49;;;;;;;13.10;5.85;;;4.60;99.90;;;;;;4862338;29;20403;-83
2021/01/23 06:28:37;;;;;;;9.90;5.25;;;4.50;99.90;;;;;;4869482;29;20128;-84
2021/01/23 06:31:22;;;;;;;10.82;5.47;;;4.50;99.90;;;;;;4871849;29;20040;-82
2021/01/23 06:33:51;;;;;;;15.30;5.97;;;4.60;99.90;;;;;;4872543;29;20040;-84
2021/01/23 06:36:21;;;;;;;11.32;5.63;;;4.60;99.90;;;;;;4875914;29;20029;-84
2021/01/23 06:39:07;;;;;;;8.48;5.05;;;4.60;99.90;;;;;;4874213;29;20106;-84
2021/01/23 06:41:35;;;;;;;11.88;5.70;;;4.60;99.90;;;;;;4876131;29;20018;-84
2021/01/23 06:44:07;;;;;;;11.15;5.88;;;4.60;99.90;;;;;;4874861;29;20061;-83
2021/01/23 06:46:40;;;;;;;13.07;6.10;;;4.60;99.90;;;;;;4872441;29;20045;-82
2021/01/23 06:49:11;;;;;;;7.65;5.03;;;4.70;99.90;;;;;;4870792;29;20037;-85
2021/01/23 06:51:40;;;;;;;10.80;5.45;;;4.60;99.90;;;;;;4869443;29;20026;-84
2021/01/23 06:54:16;;;;;;;13.40;5.50;;;4.60;99.90;;;;;;4878789;29;20038;-84
2021/01/23 06:56:47;;;;;;;9.20;5.78;;;4.60;99.90;;;;;;4875905;29;20040;-84
2021/01/23 06:59:27;;;;;;;10.73;6.13;;;4.60;99.90;;;;;;4872632;29;20034;-85
2021/01/23 07:02:09;;;;;;;12.35;6.70;;;4.60;99.90;;;;;;4868126;29;20042;-84
2021/01/23 07:04:43;;;;;;;12.63;5.13;;;4.60;99.90;;;;;;4848326;29;20040;-85
2021/01/23 07:07:09;;;;;;;13.18;7.13;;;4.70;99.90;;;;;;4860697;29;20045;-86
2021/01/23 07:09:55;;;;;;;12.05;5.65;;;4.80;99.90;;;;;;4857606;29;20034;-85
2021/01/23 07:12:46;;;;;;;10.15;6.30;;;4.80;99.90;;;;;;4871033;29;20061;-84
2021/01/23 07:15:27;;;;;;;11.25;5.60;;;4.80;99.90;;;;;;4838290;29;20043;-85
2021/01/23 07:17:53;;;;;;;14.60;5.53;;;4.80;99.90;;;;;;4859536;29;20034;-83
2021/01/23 07:20:18;;;;;;;14.20;6.43;;;4.80;99.90;;;;;;4846766;29;20049;-85
2021/01/23 07:22:46;;;;;;;7.47;4.93;;;4.80;99.90;;;;;;4846647;29;20022;-84
2021/01/23 07:25:15;;;;;;;17.43;6.60;;;4.80;99.90;;;;;;4848395;29;20113;-85
2021/01/23 07:27:42;;;;;;;18.58;6.78;;;4.80;99.90;;;;;;4844930;29;20034;-84
2021/01/23 07:30:15;;;;;;;12.73;6.05;;;4.80;99.90;;;;;;4861061;29;20030;-85
2021/01/23 07:32:46;;;;;;;14.70;6.97;;;4.70;99.90;;;;;;4861002;29;20071;-84
2021/01/23 07:35:13;;;;;;;13.63;6.15;;;4.70;99.90;;;;;;4845306;29;20096;-84
2021/01/23 07:37:59;;;;;;;12.02;6.70;;;4.70;99.90;;;;;;4846677;29;20503;-84
2021/01/23 07:40:30;;;;;;;14.40;5.97;;;4.60;99.90;;;;;;4844544;29;20040;-83
2021/01/23 07:43:01;;;;;;;17.50;6.82;;;4.60;99.90;;;;;;4847199;29;20041;-83
2021/01/23 07:45:27;;;;;;;12.45;6.47;;;4.60;99.90;;;;;;4841877;29;20380;-84
2021/01/23 07:48:03;;;;;;;13.57;6.45;;;4.60;99.90;;;;;;4867751;29;20496;-82
2021/01/23 07:50:48;;;;;;;15.63;6.25;;;4.60;99.90;;;;;;4846451;29;20491;-84
2021/01/23 07:53:21;;;;;;;17.52;6.70;;;4.60;99.90;;;;;;4847235;29;20030;-84
2021/01/23 07:55:51;;;;;;;12.50;5.95;;;4.60;99.90;;;;;;4848762;29;20056;-85
2021/01/23 07:58:18;;;;;;;9.60;6.03;;;4.60;99.90;;;;;;4860459;29;20042;-84
2021/01/23 08:00:44;;;;;;;11.13;6.05;;;4.60;99.90;;;;;;4864454;29;20049;-84
2021/01/23 08:03:10;;;;;;;11.65;6.57;;;4.60;99.90;;;;;;4866965;29;20061;-84
2021/01/23 08:05:49;;;;;;;9.75;5.85;;;4.60;99.90;;;;;;4864606;29;20091;-83
2021/01/23 08:08:44;;;;;;;10.40;6.05;;;4.60;99.90;;;;;;4846365;29;20045;-83
2021/01/23 08:11:36;;;;;;;13.02;5.82;;;4.50;99.90;;;;;;4854396;29;20079;-84
2021/01/23 08:14:10;;;;;;;14.25;5.78;;;4.50;99.90;;;;;;4864482;29;20046;-84
2021/01/23 08:16:48;;;;;;;13.68;5.82;;;4.50;99.90;;;;;;4863002;29;20044;-84
2021/01/23 08:19:14;;;;;;;9.50;5.55;;;4.50;99.90;;;;;;4862731;29;20467;-84
2021/01/23 08:21:39;;;;;;;9.65;5.07;;;4.60;99.90;;;;;;4866829;29;20045;-84
2021/01/23 08:24:25;;;;;;;7.20;5.95;;;4.70;99.90;;;;;;4849666;29;20029;-84
2021/01/23 08:26:51;;;;;;;13.73;5.22;;;4.70;99.90;;;;;;4849296;29;20041;-83
2021/01/23 08:29:20;;;;;;;8.02;5.35;;;4.70;99.90;;;;;;4863116;29;20030;-82
2021/01/23 08:32:00;;;;;;;8.63;5.35;;;4.80;99.90;;;;;;4862458;29;20406;-82
2021/01/23 08:34:25;;;;;;;9.38;5.10;;;4.80;99.90;;;;;;4843936;29;20026;-83
2021/01/23 08:36:51;;;;;;;19.35;5.25;;;4.90;99.90;;;;;;4846687;29;20371;-77
2021/01/23 08:39:17;;;;;;;12.93;5.63;;;4.90;99.90;;;;;;4862197;29;20037;-80
2021/01/23 08:41:42;;;;;;;14.30;5.10;;;4.90;99.90;;;;;;4861434;29;20029;-77
2021/01/23 08:44:08;;;;;;;10.32;5.32;;;4.90;99.90;;;;;;4861427;29;20025;-73
2021/01/23 08:46:33;;;;;;;9.32;5.57;;;4.90;99.90;;;;;;4849278;29;20105;-74
2021/01/23 08:49:00;;;;;;;9.40;5.75;;;5.00;99.90;;;;;;4859907;29;20045;-74
2021/01/23 08:51:25;;;;;;;7.43;4.82;;;5.00;99.90;;;;;;4844752;29;20128;-73
2021/01/23 08:53:51;;;;;;;12.75;5.63;;;5.00;99.90;;;;;;4861012;29;20125;-72
2021/01/23 08:56:17;;;;;;;9.90;5.22;;;5.00;99.90;;;;;;4849769;29;20396;-73
2021/01/23 08:58:43;;;;;;;8.13;5.88;;;5.00;99.90;;;;;;4859834;29;20546;-74
2021/01/23 09:01:09;;;;;;;12.02;4.68;;;5.00;99.90;;;;;;4860012;29;20109;-73
2021/01/23 09:03:34;;;;;;;11.82;5.60;;;5.00;99.90;;;;;;4859851;29;20468;-73
2021/01/23 09:06:00;;;;;;;12.70;5.22;;;5.00;99.90;;;;;;4861686;29;20069;-73
2021/01/23 09:08:26;;;;;;;10.93;5.15;;;5.00;99.90;;;;;;4861744;29;20395;-73
2021/01/23 09:10:51;;;;;;;8.60;4.93;;;4.90;99.90;;;;;;4859638;29;20429;-73
2021/01/23 09:13:17;;;;;;;8.43;4.50;;;5.10;99.90;;;;;;4844839;29;20041;-73
2021/01/23 09:15:42;;;;;;;12.45;5.32;;;5.00;99.90;;;;;;4858415;29;20033;-74
2021/01/23 09:18:09;;;;;;;8.45;4.28;;;4.90;99.90;;;;;;4839700;29;20133;-73
2021/01/23 09:20:34;;;;;;;16.25;7.72;;;5.00;99.90;;;;;;4855502;29;20112;-74
2021/01/23 09:23:00;;;;;;;10.55;5.70;;;5.00;99.90;;;;;;4866334;29;20089;-73
2021/01/23 09:25:25;;;;;;;8.25;5.40;;;5.00;99.90;;;;;;4860301;29;20032;-74
2021/01/23 09:27:51;;;;;;;8.45;5.25;;;5.00;99.90;;;;;;4861340;29;20029;-73
2021/01/23 09:30:17;;;;;;;8.95;5.25;;;5.10;99.90;;;;;;4859628;29;20036;-73
2021/01/23 09:32:43;;;;;;;17.77;5.75;;;5.10;99.90;;;;;;4860832;29;20041;-73
2021/01/23 09:35:10;;;;;;;13.55;5.72;;;5.20;99.90;;;;;;4857125;29;20375;-73
2021/01/23 09:37:35;;;;;;;14.25;6.10;;;5.20;99.90;;;;;;4859031;29;20402;-75
2021/01/23 09:40:01;;;;;;;11.65;5.78;;;5.20;99.90;;;;;;4858773;29;20082;-73
2021/01/23 09:42:28;;;;;;;7.47;4.55;;;5.20;99.90;;;;;;4844260;29;20447;-72
2021/01/23 09:44:54;;;;;;;9.10;5.25;;;5.20;99.90;;;;;;4860127;29;20102;-72
2021/01/23 09:47:20;;;;;;;8.60;5.03;;;5.30;99.90;;;;;;4860408;29;20473;-72
2021/01/23 09:49:46;;;;;;;11.18;6.00;;;5.30;99.90;;;;;;4859906;29;20064;-72
2021/01/23 09:52:11;;;;;;;16.77;5.28;;;5.40;99.90;;;;;;4852569;29;20041;-72
2021/01/23 09:54:37;;;;;;;11.40;5.70;;;5.40;99.90;;;;;;4860857;29;20037;-73
2021/01/23 09:57:03;;;;;;;11.93;6.00;;;5.30;99.90;;;;;;4857772;29;20033;-72
2021/01/23 09:59:29;;;;;;;8.85;5.40;;;5.30;99.90;;;;;;4843131;29;20145;-72
2021/01/23 10:01:55;;;;;;;8.90;4.65;;;5.40;99.90;;;;;;4860412;29;20057;-74
2021/01/23 10:04:21;;;;;;;16.95;5.22;;;5.40;99.90;;;;;;4857763;29;20025;-73
2021/01/23 10:06:47;;;;;;;15.00;5.40;;;5.40;99.90;;;;;;4860338;29;20045;-73
2021/01/23 10:09:12;;;;;;;9.35;5.55;;;5.30;99.90;;;;;;4860096;29;20037;-74
2021/01/23 10:11:38;;;;;;;10.85;5.22;;;5.20;99.90;;;;;;4858985;29;20490;-74
2021/01/23 10:14:04;;;;;;;12.02;4.70;;;5.20;99.90;;;;;;4841022;29;20048;-73
2021/01/23 10:16:30;;;;;;;8.45;4.53;;;5.30;99.90;;;;;;4842081;29;20029;-73
2021/01/23 10:18:55;;;;;;;12.15;4.93;;;5.20;99.90;;;;;;4859923;29;20022;-72
2021/01/23 10:21:21;;;;;;;10.05;5.00;;;5.30;99.90;;;;;;4856238;29;20081;-72
2021/01/23 10:23:46;;;;;;;7.63;4.18;;;5.30;99.90;;;;;;4866486;29;20025;-72
2021/01/23 10:26:12;;;;;;;13.25;4.93;;;5.20;99.90;;;;;;4844719;29;20076;-73
2021/01/23 10:28:37;;;;;;;12.98;5.35;;;5.20;99.90;;;;;;4860666;29;20048;-73
2021/01/23 10:31:03;;;;;;;6.57;4.68;;;5.30;99.90;;;;;;4871806;29;20037;-74
2021/01/23 10:33:29;;;;;;;10.95;4.78;;;5.20;99.90;;;;;;4860661;29;20025;-73
2021/01/23 10:35:54;;;;;;;10.52;4.93;;;5.30;99.90;;;;;;4859251;29;20036;-74
2021/01/23 10:38:20;;;;;;;12.70;4.47;;;5.30;99.90;;;;;;4859133;29;20041;-74
2021/01/23 10:40:46;;;;;;;6.18;4.18;;;5.40;99.90;;;;;;4844731;29;20072;-73
2021/01/23 10:43:12;;;;;;;12.35;5.22;;;5.50;99.90;;;;;;4860250;29;20026;-73
2021/01/23 10:45:38;;;;;;;14.00;5.88;;;5.60;99.90;;;;;;4860860;29;20025;-74
2021/01/23 10:48:05;;;;;;;9.77;6.22;;;5.70;99.90;;;;;;4860435;29;20401;-73
2021/01/23 10:50:31;;;;;;;14.10;5.03;;;5.80;99.90;;;;;;4859592;29;20041;-73
2021/01/23 10:52:57;;;;;;;8.52;5.30;;;5.80;99.90;;;;;;4863324;29;20383;-73
2021/01/23 10:55:22;;;;;;;9.13;5.30;;;5.80;99.90;;;;;;4863310;29;20144;-73
2021/01/23 10:57:48;;;;;;;13.77;5.18;;;5.70;99.90;;;;;;4859089;29;20515;-73
2021/01/23 11:00:14;;;;;;;10.60;4.95;;;5.60;99.90;;;;;;4858753;29;20551;-73
2021/01/23 11:02:41;;;;;;;13.30;5.00;;;5.50;99.90;;;;;;4854214;29;20082;-74
2021/01/23 11:05:07;;;;;;;13.18;5.95;;;5.40;99.90;;;;;;4858170;29;20030;-74
2021/01/23 11:07:33;;;;;;;12.07;5.28;;;5.40;99.90;;;;;;4856749;29;20042;-73
2021/01/23 11:09:59;;;;;;;8.48;5.32;;;5.40;99.90;;;;;;4844123;29;20026;-76
2021/01/23 11:12:26;;;;;;;7.47;5.20;;;5.40;99.90;;;;;;4844182;29;20476;-83
2021/01/23 11:14:52;;;;;;;9.07;5.10;;;5.60;99.90;;;;;;4861175;29;20129;-83
2021/01/23 11:17:18;;;;;;;11.93;7.13;;;5.70;99.90;;;;;;4858010;29;20552;-83
2021/01/23 11:19:44;;;;;;;8.73;5.50;;;5.80;99.90;;;;;;4843217;29;20018;-81
2021/01/23 11:22:09;;;;;;;11.95;5.65;;;5.90;99.90;;;;;;4858439;29;20073;-80
2021/01/23 11:24:35;;;;;;;8.25;4.88;;;6.10;99.90;;;;;;4863253;29;20029;-87
2021/01/23 11:27:01;;;;;;;21.50;8.48;;;6.10;99.90;;;;;;4857126;29;20029;-86
2021/01/23 11:29:26;;;;;;;8.80;6.32;;;6.20;99.90;;;;;;4833388;29;20080;-84
2021/01/23 11:31:52;;;;;;;8.30;5.05;;;6.20;99.90;;;;;;4843986;29;20025;-79
2021/01/23 11:34:18;;;;;;;13.73;5.88;;;6.20;99.90;;;;;;4856215;29;20037;-79
2021/01/23 11:36:44;;;;;;;14.82;7.75;;;6.20;99.90;;;;;;4852251;29;20033;-80
2021/01/23 11:39:09;;;;;;;14.73;6.72;;;6.20;99.90;;;;;;4859616;29;20199;-80
2021/01/23 11:41:35;;;;;;;20.73;11.32;;;6.20;99.90;;;;;;4841045;29;20029;-80
2021/01/23 11:44:01;;;;;;;23.75;9.75;;;6.30;99.90;;;;;;4843193;29;20120;-80
2021/01/23 11:46:27;;;;;;;16.80;8.45;;;6.40;99.90;;;;;;4858186;29;20025;-80
2021/01/23 11:48:53;;;;;;;16.80;7.85;;;6.40;99.90;;;;;;4855221;29;20042;-79
2021/01/23 11:51:18;;;;;;;33.83;20.42;;;6.40;99.90;;;;;;4854032;29;20176;-79
2021/01/23 11:53:44;;;;;;;14.00;8.50;;;6.50;99.90;;;;;;4862791;29;20032;-80
2021/01/23 11:56:10;;;;;;;11.80;5.90;;;6.40;99.90;;;;;;4863741;29;20090;-80
2021/01/23 11:58:35;;;;;;;12.38;6.35;;;6.40;99.90;;;;;;4850837;29;20084;-80
2021/01/23 12:01:01;;;;;;;26.42;17.85;;;6.40;99.90;;;;;;4858130;29;20045;-80
2021/01/23 12:03:26;;;;;;;15.52;6.00;;;6.50;99.90;;;;;;4863525;29;20081;-80
2021/01/23 12:05:52;;;;;;;10.25;6.13;;;6.50;99.90;;;;;;4863180;29;20082;-80
2021/01/23 12:08:18;;;;;;;7.07;5.05;;;6.50;99.90;;;;;;4862499;29;20517;-80
2021/01/23 12:10:44;;;;;;;12.30;4.82;;;6.40;99.90;;;;;;4862268;29;20132;-79
2021/01/23 12:13:10;;;;;;;6.47;4.88;;;6.40;99.90;;;;;;4861695;29;20034;-80
2021/01/23 12:15:36;;;;;;;10.68;6.28;;;6.50;99.90;;;;;;4861945;29;20505;-79
2021/01/23 12:18:02;;;;;;;11.18;5.55;;;6.50;99.90;;;;;;4862070;29;20098;-81
2021/01/23 12:20:27;;;;;;;10.63;5.30;;;6.60;99.90;;;;;;4863516;29;20029;-79
2021/01/23 12:22:53;;;;;;;6.88;4.25;;;6.60;99.90;;;;;;4850005;29;20403;-81
2021/01/23 12:25:19;;;;;;;5.72;4.38;;;6.70;99.90;;;;;;4861691;29;20036;-79
2021/01/23 12:27:45;;;;;;;6.32;3.97;;;6.70;99.90;;;;;;4856506;29;20021;-79
2021/01/23 12:30:13;;;;;;;8.77;4.13;;;6.70;99.90;;;;;;4854419;29;20045;-79
2021/01/23 12:32:39;;;;;;;13.40;11.40;;;6.60;99.90;;;;;;4855765;29;20036;-78
2021/01/23 12:35:09;;;;;;;9.68;5.22;;;6.50;99.90;;;;;;4853262;29;20082;-77
2021/01/23 12:37:37;;;;;;;9.60;6.68;;;6.50;99.90;;;;;;4853381;29;20032;-82
2021/01/23 12:40:05;;;;;;;11.93;5.85;;;6.50;99.90;;;;;;4855988;29;20037;-81
2021/01/23 12:42:30;;;;;;;7.43;5.85;;;6.50;99.90;;;;;;4860142;29;20252;-79
2021/01/23 12:44:56;;;;;;;14.43;5.95;;;6.50;99.90;;;;;;4845669;29;20173;-79
2021/01/23 12:47:22;;;;;;;12.75;4.35;;;6.60;99.90;;;;;;4864264;29;20033;-81
2021/01/23 12:49:47;;;;;;;8.85;5.32;;;6.60;99.90;;;;;;4853569;29;20041;-85
2021/01/23 12:52:13;;;;;;;8.73;4.35;;;6.70;99.90;;;;;;4863171;29;20103;-84
2021/01/23 12:54:40;;;;;;;7.15;4.20;;;6.80;99.90;;;;;;4863476;29;20112;-84